Time;durP1;ratioP1;P1;durP2;ratioP2;P2;SDS_P1;SDS_P2;PMS_P1;PMS_P2;Temp;Humidity;BMP_temperature;BMP_pressure;BME280_temperature;BME280_humidity;BME280_pressure;Samples;Min_cycle;Max_cycle;Signal;HPM_P1;HPM_P2
2023/04/05 00:02:17;;;;;;;7.13;3.70;;;1.70;80.90;;;;;;5113074;28;20226;-61
2023/04/05 00:04:50;;;;;;;4.70;3.70;;;1.70;81.20;;;;;;5112946;28;20203;-62
2023/04/05 00:07:20;;;;;;;5.22;2.83;;;1.60;81.90;;;;;;5113294;28;20195;-63
2023/04/05 00:09:47;;;;;;;6.57;3.05;;;1.60;82.60;;;;;;5113212;28;20214;-61
2023/04/05 00:12:16;;;;;;;4.00;2.85;;;1.60;83.30;;;;;;5113925;28;20215;-61
2023/04/05 00:14:43;;;;;;;4.03;3.45;;;1.50;83.90;;;;;;5113117;28;20206;-63
2023/04/05 00:17:10;;;;;;;5.75;4.07;;;1.50;84.90;;;;;;5113749;28;20215;-61
2023/04/05 00:19:37;;;;;;;3.17;2.88;;;1.50;85.10;;;;;;5113085;28;20211;-61
2023/04/05 00:22:04;;;;;;;4.07;3.17;;;1.50;85.40;;;;;;5113002;28;20726;-62
2023/04/05 00:24:32;;;;;;;5.65;3.25;;;1.50;86.20;;;;;;5113154;28;20206;-62
2023/04/05 00:26:59;;;;;;;6.30;3.70;;;1.40;86.70;;;;;;5115059;28;20199;-61
2023/04/05 00:29:28;;;;;;;7.53;4.78;;;1.40;87.50;;;;;;5117428;28;20223;-61
2023/04/05 00:31:54;;;;;;;6.93;4.53;;;1.30;88.20;;;;;;5117298;28;20219;-62
2023/04/05 00:34:21;;;;;;;5.15;3.40;;;1.30;89.20;;;;;;5117196;28;20205;-61
2023/04/05 00:36:48;;;;;;;10.63;3.70;;;1.30;89.90;;;;;;5117605;28;20231;-62
2023/04/05 00:39:15;;;;;;;8.65;3.80;;;1.30;90.20;;;;;;5117437;28;20206;-61
2023/04/05 00:41:43;;;;;;;4.60;3.40;;;1.30;90.40;;;;;;5117377;28;20242;-62
2023/04/05 00:44:11;;;;;;;4.45;3.10;;;1.30;90.40;;;;;;5117183;28;20241;-60
2023/04/05 00:46:39;;;;;;;6.05;3.80;;;1.30;90.60;;;;;;5117128;28;20196;-61
2023/04/05 00:49:07;;;;;;;6.78;4.20;;;1.30;90.80;;;;;;5117181;28;20249;-61
2023/04/05 00:51:34;;;;;;;5.68;3.53;;;1.20;90.80;;;;;;5116757;28;20223;-61
2023/04/05 00:54:01;;;;;;;4.93;3.72;;;1.20;90.90;;;;;;5117013;28;20740;-61
2023/04/05 00:56:28;;;;;;;3.67;3.38;;;1.20;91.40;;;;;;5116852;28;20791;-61
2023/04/05 00:58:55;;;;;;;8.65;4.38;;;1.10;91.30;;;;;;5116717;28;20730;-61
2023/04/05 01:01:25;;;;;;;5.00;3.20;;;1.10;91.60;;;;;;5116997;28;20230;-62
2023/04/05 01:03:58;;;;;;;7.53;3.85;;;1.10;91.60;;;;;;5116851;28;20199;-61
2023/04/05 01:06:40;;;;;;;6.60;3.80;;;1.00;92.10;;;;;;5116901;28;20191;-60
2023/04/05 01:09:17;;;;;;;5.18;3.72;;;1.00;92.20;;;;;;5117011;28;20249;-61
2023/04/05 01:11:47;;;;;;;5.78;4.82;;;1.00;92.40;;;;;;5116937;28;20612;-61
2023/04/05 01:14:14;;;;;;;3.55;3.25;;;1.00;92.50;;;;;;5116593;28;20206;-61
2023/04/05 01:16:41;;;;;;;6.45;4.03;;;0.90;92.50;;;;;;5116572;28;20268;-61
2023/04/05 01:19:12;;;;;;;7.30;4.55;;;0.90;92.60;;;;;;5116758;28;20577;-61
2023/04/05 01:22:12;;;;;;;5.13;4.25;;;0.80;92.80;;;;;;5116460;28;20594;-61
2023/04/05 01:24:51;;;;;;;9.10;5.00;;;0.80;93.10;;;;;;5074966;28;20246;-61
2023/04/05 01:27:22;;;;;;;5.30;4.13;;;0.70;93.20;;;;;;5116791;28;20285;-61
2023/04/05 01:30:02;;;;;;;12.57;4.60;;;0.70;93.30;;;;;;5116798;28;20188;-61
2023/04/05 01:32:51;;;;;;;7.28;4.32;;;0.70;93.50;;;;;;5116679;28;20234;-61
2023/04/05 01:35:24;;;;;;;7.03;4.43;;;0.60;93.50;;;;;;5116818;28;20188;-62
2023/04/05 01:37:59;;;;;;;12.27;4.53;;;0.60;93.70;;;;;;5116295;28;20212;-62
2023/04/05 01:40:27;;;;;;;6.43;4.00;;;0.60;94.00;;;;;;5116357;28;20652;-61
2023/04/05 01:42:54;;;;;;;5.57;4.45;;;0.50;94.10;;;;;;5116301;28;20234;-60
2023/04/05 01:45:22;;;;;;;6.63;4.47;;;0.50;94.30;;;;;;5116715;28;20206;-61
2023/04/05 01:47:49;;;;;;;8.63;4.70;;;0.40;94.50;;;;;;5116418;28;20196;-61
2023/04/05 01:50:15;;;;;;;8.27;4.65;;;0.40;94.70;;;;;;5117129;28;20548;-61
2023/04/05 01:52:42;;;;;;;9.73;4.88;;;0.40;95.00;;;;;;5116357;28;20231;-62
2023/04/05 01:55:09;;;;;;;6.13;4.05;;;0.40;95.10;;;;;;5115909;28;20204;-61
2023/04/05 01:57:37;;;;;;;8.10;5.18;;;0.40;95.30;;;;;;5116296;28;20222;-61
2023/04/05 02:00:05;;;;;;;6.95;4.97;;;0.40;95.60;;;;;;5116597;28;20578;-61
2023/04/05 02:02:33;;;;;;;7.32;3.80;;;0.30;95.70;;;;;;5116103;28;20219;-61
2023/04/05 02:04:59;;;;;;;5.60;4.18;;;0.30;95.90;;;;;;5116028;28;20673;-61
2023/04/05 02:07:26;;;;;;;5.63;4.95;;;0.30;96.00;;;;;;5115905;28;20657;-61
2023/04/05 02:09:53;;;;;;;5.90;4.78;;;0.30;96.20;;;;;;5115267;28;20592;-62
2023/04/05 02:12:21;;;;;;;12.70;4.13;;;0.30;96.30;;;;;;5115591;28;20220;-61
2023/04/05 02:14:48;;;;;;;6.15;3.80;;;0.20;96.40;;;;;;5115579;28;20322;-62
2023/04/05 02:17:16;;;;;;;7.15;4.13;;;0.20;96.60;;;;;;5115161;28;20222;-61
2023/04/05 02:19:45;;;;;;;4.78;3.55;;;0.20;96.70;;;;;;5114962;28;20208;-62
2023/04/05 02:22:12;;;;;;;7.82;4.20;;;0.20;96.80;;;;;;5115337;28;20235;-61
2023/04/05 02:24:40;;;;;;;8.32;4.25;;;0.20;96.80;;;;;;5115470;28;20206;-60
2023/04/05 02:27:07;;;;;;;7.18;4.45;;;0.20;97.20;;;;;;5115654;28;20283;-61
2023/04/05 02:29:34;;;;;;;7.05;3.75;;;0.20;97.00;;;;;;5115879;28;20225;-61
2023/04/05 02:32:01;;;;;;;7.45;4.15;;;0.10;97.00;;;;;;5115256;28;20773;-61
2023/04/05 02:34:28;;;;;;;5.18;3.50;;;0.20;97.10;;;;;;5115885;28;20576;-61
2023/04/05 02:36:56;;;;;;;6.30;4.40;;;0.20;97.10;;;;;;5115524;28;20220;-61
2023/04/05 02:39:23;;;;;;;11.27;5.40;;;0.10;97.10;;;;;;5115721;28;20200;-61
2023/04/05 02:41:49;;;;;;;5.68;3.85;;;0.10;97.10;;;;;;5115263;28;20235;-61
2023/04/05 02:44:16;;;;;;;7.32;3.97;;;0.10;97.20;;;;;;5115433;28;20210;-62
2023/04/05 02:46:43;;;;;;;5.30;4.22;;;0.10;97.30;;;;;;5115662;28;20200;-61
2023/04/05 02:49:10;;;;;;;5.45;4.35;;;0.00;97.50;;;;;;5115006;28;20200;-61
2023/04/05 02:51:37;;;;;;;4.78;3.50;;;0.10;97.60;;;;;;5114644;28;20216;-61
2023/04/05 02:54:05;;;;;;;4.70;3.67;;;0.10;97.60;;;;;;5115233;28;20252;-61
2023/04/05 02:56:32;;;;;;;7.50;4.00;;;0.10;97.50;;;;;;5114968;28;20215;-62
2023/04/05 02:58:59;;;;;;;6.70;4.38;;;0.00;97.70;;;;;;5114580;28;20206;-61
2023/04/05 03:01:26;;;;;;;7.68;3.55;;;0.00;97.70;;;;;;5114378;28;20216;-62
2023/04/05 03:03:53;;;;;;;4.25;3.85;;;0.00;97.70;;;;;;5114519;28;20309;-61
2023/04/05 03:06:21;;;;;;;5.75;3.55;;;0.00;97.90;;;;;;5114375;28;20208;-61
2023/04/05 03:08:48;;;;;;;5.07;3.75;;;0.00;98.00;;;;;;5114473;28;20572;-62
2023/04/05 03:11:16;;;;;;;6.57;4.07;;;0.00;97.90;;;;;;5114334;28;20206;-61
2023/04/05 03:13:43;;;;;;;5.28;3.53;;;0.00;98.00;;;;;;5114434;28;20207;-62
2023/04/05 03:16:10;;;;;;;5.60;3.63;;;0.00;98.00;;;;;;5114236;28;20208;-61
2023/04/05 03:18:36;;;;;;;6.78;3.15;;;0.00;98.10;;;;;;5114482;28;20223;-61
2023/04/05 03:21:04;;;;;;;6.28;4.13;;;-0.10;98.10;;;;;;5114340;28;20204;-61
2023/04/05 03:23:32;;;;;;;7.95;3.63;;;-0.10;98.20;;;;;;5114843;28;20204;-62
2023/04/05 03:26:00;;;;;;;4.95;3.50;;;-0.10;98.20;;;;;;5114055;28;20665;-62
2023/04/05 03:28:29;;;;;;;9.85;4.03;;;-0.10;98.20;;;;;;5114694;28;20214;-62
2023/04/05 03:30:56;;;;;;;5.55;3.90;;;-0.10;98.30;;;;;;5114412;28;20199;-62
2023/04/05 03:33:22;;;;;;;7.00;4.00;;;-0.10;98.40;;;;;;5113844;28;20230;-61
2023/04/05 03:35:49;;;;;;;7.28;4.55;;;-0.10;98.40;;;;;;5113844;28;20206;-62
2023/04/05 03:38:17;;;;;;;7.97;4.00;;;-0.10;98.40;;;;;;5113658;28;20219;-61
2023/04/05 03:40:43;;;;;;;3.92;3.55;;;-0.20;98.50;;;;;;5114091;28;20195;-61
2023/04/05 03:43:10;;;;;;;3.72;3.10;;;-0.20;98.80;;;;;;5113235;28;20231;-62
2023/04/05 03:45:38;;;;;;;6.25;3.72;;;-0.10;98.70;;;;;;5113722;28;20283;-62
2023/04/05 03:48:05;;;;;;;5.80;3.65;;;-0.10;98.70;;;;;;5113626;28;20196;-62
2023/04/05 03:50:32;;;;;;;7.35;4.32;;;-0.20;98.80;;;;;;5113990;28;20684;-61
2023/04/05 03:52:59;;;;;;;4.80;3.70;;;-0.20;99.00;;;;;;5114116;28;20242;-61
2023/04/05 03:55:26;;;;;;;6.72;4.50;;;-0.10;99.20;;;;;;5113913;28;20242;-63
2023/04/05 03:57:53;;;;;;;7.40;4.18;;;-0.20;99.20;;;;;;5114378;28;20215;-62
2023/04/05 04:00:22;;;;;;;6.25;4.15;;;-0.20;99.40;;;;;;5114589;28;20203;-61
2023/04/05 04:02:52;;;;;;;4.00;3.60;;;-0.20;99.70;;;;;;5114404;28;20219;-61
2023/04/05 04:05:19;;;;;;;5.18;4.35;;;-0.30;99.90;;;;;;5114548;28;20620;-61
2023/04/05 04:07:47;;;;;;;8.10;5.32;;;-0.30;99.90;;;;;;5113599;28;20208;-62
2023/04/05 04:11:30;;;;;;;8.18;4.53;;;-0.40;99.90;;;;;;5090772;27;20577;-62
2023/04/05 04:13:56;;;;;;;7.13;4.50;;;-0.30;99.90;;;;;;5091010;28;20200;-63
2023/04/05 04:16:23;;;;;;;7.05;4.57;;;-0.30;99.90;;;;;;5090537;28;20205;-62
2023/04/05 04:18:53;;;;;;;7.45;5.20;;;-0.30;99.90;;;;;;5090827;28;20207;-62
2023/04/05 04:21:23;;;;;;;8.35;5.25;;;-0.30;99.90;;;;;;5092056;28;20199;-61
2023/04/05 04:23:50;;;;;;;5.00;4.50;;;-0.30;99.90;;;;;;5091519;28;20185;-61
2023/04/05 04:26:25;;;;;;;5.88;5.28;;;-0.30;99.90;;;;;;5092425;28;20205;-62
2023/04/05 04:28:53;;;;;;;10.82;4.50;;;-0.20;99.90;;;;;;5091092;28;20581;-61
2023/04/05 04:31:21;;;;;;;5.65;4.90;;;-0.30;99.90;;;;;;5090508;28;20590;-62
2023/04/05 04:33:49;;;;;;;6.72;4.75;;;-0.30;99.90;;;;;;5090731;28;20711;-62
2023/04/05 04:36:33;;;;;;;5.38;4.88;;;-0.30;99.90;;;;;;5090976;28;20606;-61
2023/04/05 04:39:01;;;;;;;7.50;5.22;;;-0.30;99.90;;;;;;5090630;28;20185;-62
2023/04/05 04:41:29;;;;;;;7.25;5.80;;;-0.30;99.90;;;;;;5090247;28;20314;-63
2023/04/05 04:43:57;;;;;;;8.23;5.65;;;-0.30;99.90;;;;;;5090623;28;20197;-62
2023/04/05 04:46:29;;;;;;;7.75;6.43;;;-0.20;99.90;;;;;;5090313;28;20198;-62
2023/04/05 04:48:57;;;;;;;10.82;5.88;;;-0.20;99.90;;;;;;5088945;28;20700;-63
2023/04/05 04:51:23;;;;;;;8.93;5.40;;;-0.10;99.90;;;;;;5089174;28;20269;-62
2023/04/05 04:53:50;;;;;;;7.45;5.25;;;-0.10;99.90;;;;;;5089965;28;20200;-62
2023/04/05 04:56:17;;;;;;;9.45;6.15;;;-0.10;99.90;;;;;;5090748;28;20211;-61
2023/04/05 04:58:44;;;;;;;6.97;5.82;;;-0.10;99.90;;;;;;5090235;28;20207;-62
2023/04/05 05:01:12;;;;;;;8.40;6.38;;;-0.10;99.90;;;;;;5089270;28;20197;-61
2023/04/05 05:03:39;;;;;;;9.27;6.50;;;0.00;99.90;;;;;;5089988;28;20212;-62
2023/04/05 05:06:06;;;;;;;7.00;5.05;;;0.00;99.90;;;;;;5091199;28;20235;-60
2023/04/05 05:08:33;;;;;;;7.85;6.43;;;0.10;99.90;;;;;;5090167;28;20279;-61
2023/04/05 05:11:01;;;;;;;9.27;6.40;;;0.20;99.90;;;;;;5089443;28;20220;-62
2023/04/05 05:13:27;;;;;;;7.05;5.68;;;0.20;99.90;;;;;;5090030;28;20201;-62
2023/04/05 05:15:55;;;;;;;8.45;5.85;;;0.20;99.90;;;;;;5089272;28;20200;-62
2023/04/05 05:18:23;;;;;;;7.47;5.80;;;0.30;99.90;;;;;;5090102;28;20201;-62
2023/04/05 05:20:51;;;;;;;10.95;5.93;;;0.40;99.90;;;;;;5087469;28;20207;-62
2023/04/05 05:23:19;;;;;;;6.47;5.82;;;0.40;99.90;;;;;;5075572;28;20238;-62
2023/04/05 05:25:46;;;;;;;7.20;5.30;;;0.50;99.90;;;;;;5076174;28;20227;-62
2023/04/05 05:28:13;;;;;;;7.35;5.10;;;0.60;99.90;;;;;;5078172;28;20211;-61
2023/04/05 05:30:40;;;;;;;9.00;5.60;;;0.60;99.90;;;;;;5079234;28;20217;-61
2023/04/05 05:33:07;;;;;;;10.23;5.40;;;0.70;99.90;;;;;;5078660;28;20227;-62
2023/04/05 05:35:36;;;;;;;9.77;5.07;;;0.80;99.90;;;;;;5077710;28;20525;-60
2023/04/05 05:38:03;;;;;;;9.93;6.43;;;0.80;99.90;;;;;;5077521;28;20278;-61
2023/04/05 05:40:30;;;;;;;5.65;4.47;;;0.90;99.90;;;;;;5077250;28;20197;-61
2023/04/05 05:42:57;;;;;;;6.90;5.70;;;1.00;99.90;;;;;;5077267;28;20221;-62
2023/04/05 05:45:24;;;;;;;8.88;5.00;;;1.10;99.90;;;;;;5075997;28;20207;-61
2023/04/05 05:47:50;;;;;;;9.88;6.30;;;1.10;99.90;;;;;;5075508;28;20200;-63
2023/04/05 05:50:19;;;;;;;11.27;5.60;;;1.20;99.90;;;;;;5075323;28;20243;-62
2023/04/05 05:52:47;;;;;;;9.95;5.75;;;1.20;99.90;;;;;;5075626;28;20266;-61
2023/04/05 05:55:14;;;;;;;5.50;4.97;;;1.30;99.90;;;;;;5075360;28;20554;-61
2023/04/05 05:57:41;;;;;;;7.65;5.55;;;1.30;99.90;;;;;;5075979;28;20204;-61
2023/04/05 06:00:09;;;;;;;5.82;5.20;;;1.40;99.90;;;;;;5075547;28;20197;-62
2023/04/05 06:02:36;;;;;;;8.80;5.78;;;1.40;99.90;;;;;;5074933;28;20231;-61
2023/04/05 06:05:03;;;;;;;8.32;6.03;;;1.40;99.90;;;;;;5075549;28;20204;-62
2023/04/05 06:07:30;;;;;;;7.05;5.93;;;1.50;99.90;;;;;;5075271;28;20235;-62
2023/04/05 06:09:59;;;;;;;8.38;6.32;;;1.50;99.90;;;;;;5075006;28;20231;-62
2023/04/05 06:12:26;;;;;;;8.10;6.70;;;1.60;99.90;;;;;;5076057;28;20221;-62
2023/04/05 06:14:53;;;;;;;7.53;6.30;;;1.60;99.90;;;;;;5075270;28;20200;-62
2023/04/05 06:17:20;;;;;;;6.38;5.78;;;1.70;99.90;;;;;;5075215;28;20204;-62
2023/04/05 06:19:47;;;;;;;11.88;6.35;;;1.70;99.90;;;;;;5075182;28;20240;-61
2023/04/05 06:22:14;;;;;;;8.45;6.13;;;1.70;99.90;;;;;;5076066;28;20232;-61
2023/04/05 06:24:41;;;;;;;8.27;6.25;;;1.80;99.90;;;;;;5074631;28;20209;-62
2023/04/05 06:27:09;;;;;;;9.52;6.20;;;1.80;99.90;;;;;;5074370;28;20296;-62
2023/04/05 06:29:35;;;;;;;6.32;5.53;;;1.90;99.90;;;;;;5075215;28;20205;-62
2023/04/05 06:32:05;;;;;;;8.43;5.50;;;1.90;99.90;;;;;;5074651;28;20235;-63
2023/04/05 06:34:32;;;;;;;8.40;5.63;;;2.00;99.90;;;;;;5074874;28;20212;-63
2023/04/05 06:36:59;;;;;;;6.85;5.43;;;2.00;99.90;;;;;;5075025;28;20209;-63
2023/04/05 06:39:26;;;;;;;7.15;5.43;;;2.10;99.90;;;;;;5074568;28;20686;-61
2023/04/05 06:41:53;;;;;;;6.35;5.00;;;2.10;99.90;;;;;;5074753;28;20221;-62
2023/04/05 06:44:21;;;;;;;8.43;4.93;;;2.20;99.90;;;;;;5072092;22;20667;-65
2023/04/05 06:46:48;;;;;;;8.15;5.45;;;2.30;99.90;;;;;;5037113;28;20698;-65
2023/04/05 06:49:15;;;;;;;5.95;5.20;;;2.40;99.90;;;;;;5036138;28;20289;-65
2023/04/05 06:51:41;;;;;;;8.50;5.00;;;2.70;99.90;;;;;;5034499;28;20222;-65
2023/04/05 06:54:09;;;;;;;6.18;4.70;;;2.90;99.90;;;;;;5035378;28;20228;-66
2023/04/05 06:56:36;;;;;;;7.15;5.03;;;3.10;99.90;;;;;;5034771;28;20210;-66
2023/04/05 06:59:02;;;;;;;7.70;5.22;;;3.20;99.90;;;;;;5034477;28;20220;-65
2023/04/05 07:01:31;;;;;;;9.68;6.22;;;3.20;99.90;;;;;;5035341;28;20572;-65
2023/04/05 07:03:58;;;;;;;6.35;5.63;;;3.20;99.90;;;;;;5034454;28;20661;-66
2023/04/05 07:06:24;;;;;;;8.88;5.80;;;3.30;99.90;;;;;;5034704;28;20565;-65
2023/04/05 07:08:52;;;;;;;6.93;4.88;;;3.50;99.90;;;;;;5034287;28;20207;-65
2023/04/05 07:11:20;;;;;;;5.95;4.93;;;3.60;99.90;;;;;;5034331;28;20222;-66
2023/04/05 07:13:47;;;;;;;5.97;4.80;;;3.60;99.30;;;;;;5034255;28;20226;-65
2023/04/05 07:16:14;;;;;;;5.18;4.68;;;3.60;99.10;;;;;;5034696;28;20298;-65
2023/04/05 07:18:42;;;;;;;8.65;5.28;;;3.60;98.90;;;;;;5034827;28;20241;-65
2023/04/05 07:21:09;;;;;;;8.27;5.50;;;3.70;98.90;;;;;;5035200;28;20281;-64
2023/04/05 07:23:36;;;;;;;5.53;4.63;;;3.80;98.90;;;;;;5034767;28;20306;-63
2023/04/05 07:26:04;;;;;;;10.45;5.90;;;3.90;98.50;;;;;;5034437;28;20289;-65
2023/04/05 07:28:31;;;;;;;8.55;5.10;;;4.10;98.10;;;;;;5034037;28;20210;-65
2023/04/05 07:30:58;;;;;;;9.77;5.22;;;4.30;97.40;;;;;;5033797;28;20229;-65
2023/04/05 07:33:26;;;;;;;7.50;5.10;;;4.40;96.80;;;;;;5034114;28;20265;-65
2023/04/05 07:35:55;;;;;;;8.75;4.90;;;4.60;95.80;;;;;;5033830;28;20237;-65
2023/04/05 07:38:22;;;;;;;6.13;5.22;;;4.70;95.20;;;;;;5033800;28;20198;-65
2023/04/05 07:40:49;;;;;;;7.03;6.05;;;4.90;94.30;;;;;;5034869;28;20218;-65
2023/04/05 07:43:16;;;;;;;6.57;4.95;;;5.00;93.40;;;;;;5034084;28;20289;-66
2023/04/05 07:45:43;;;;;;;8.20;4.35;;;5.00;92.70;;;;;;5034235;28;20209;-68
2023/04/05 07:48:10;;;;;;;6.80;4.70;;;5.00;92.10;;;;;;5033766;28;20204;-66
2023/04/05 07:50:39;;;;;;;6.65;4.65;;;5.10;91.00;;;;;;5033897;28;20225;-66
2023/04/05 07:53:07;;;;;;;7.30;4.10;;;5.10;90.60;;;;;;5033698;28;20198;-66
2023/04/05 07:55:37;;;;;;;6.07;5.00;;;5.20;89.80;;;;;;5034548;28;20691;-65
2023/04/05 07:58:04;;;;;;;6.40;4.28;;;5.40;89.10;;;;;;5035139;28;20292;-67
2023/04/05 08:00:31;;;;;;;9.88;4.20;;;5.60;86.30;;;;;;5034422;28;20317;-68
2023/04/05 08:02:57;;;;;;;5.10;4.35;;;5.80;84.20;;;;;;5035168;28;20210;-66
2023/04/05 08:05:24;;;;;;;5.53;4.35;;;5.90;81.70;;;;;;5034605;28;20305;-67
2023/04/05 08:07:51;;;;;;;5.53;4.13;;;6.10;80.10;;;;;;5034685;28;20206;-68
2023/04/05 08:10:19;;;;;;;17.50;5.55;;;6.30;77.80;;;;;;5033925;28;20236;-67
2023/04/05 08:12:46;;;;;;;5.82;4.63;;;6.60;75.90;;;;;;5033873;28;20208;-67
2023/04/05 08:15:13;;;;;;;8.20;4.60;;;6.80;73.90;;;;;;5033597;28;20310;-67
2023/04/05 08:17:40;;;;;;;12.60;5.30;;;6.90;71.40;;;;;;5033525;28;20252;-67
2023/04/05 08:20:08;;;;;;;6.28;5.05;;;6.90;69.80;;;;;;5033585;28;20690;-66
2023/04/05 08:22:35;;;;;;;9.00;5.43;;;6.80;68.90;;;;;;5033954;28;20664;-66
2023/04/05 08:25:01;;;;;;;5.40;4.53;;;6.80;68.80;;;;;;5034045;28;20313;-67
2023/04/05 08:27:30;;;;;;;5.65;4.55;;;6.80;68.30;;;;;;5039954;28;20232;-68
2023/04/05 08:29:56;;;;;;;7.72;4.68;;;6.90;67.90;;;;;;5033661;28;20256;-67
2023/04/05 08:32:23;;;;;;;6.70;4.65;;;7.00;66.80;;;;;;5033308;28;20700;-67
2023/04/05 08:34:50;;;;;;;5.97;4.22;;;7.10;65.80;;;;;;5034273;28;20236;-66
2023/04/05 08:37:17;;;;;;;6.00;4.10;;;7.20;64.70;;;;;;5033480;28;20202;-72
2023/04/05 08:39:44;;;;;;;5.78;3.92;;;7.30;63.70;;;;;;5033553;28;20306;-66
2023/04/05 08:42:15;;;;;;;4.30;2.85;;;7.30;62.40;;;;;;5032799;28;20636;-67
2023/04/05 08:44:45;;;;;;;10.60;3.70;;;7.40;61.30;;;;;;5032800;28;20229;-66
2023/04/05 08:47:18;;;;;;;4.15;3.17;;;7.50;60.00;;;;;;5033333;28;20198;-67
2023/04/05 08:49:45;;;;;;;4.22;3.70;;;7.60;59.00;;;;;;5033420;28;20217;-67
2023/04/05 08:52:12;;;;;;;4.13;2.88;;;7.60;58.10;;;;;;5033194;28;20222;-66
2023/04/05 08:54:39;;;;;;;7.40;4.50;;;7.70;57.20;;;;;;5032807;28;20309;-66
2023/04/05 08:57:07;;;;;;;5.35;3.55;;;7.80;56.30;;;;;;5034381;28;20198;-67
2023/04/05 08:59:37;;;;;;;3.60;3.20;;;7.90;55.40;;;;;;5037246;28;20206;-66
2023/04/05 09:02:15;;;;;;;3.55;3.05;;;7.90;54.70;;;;;;5037614;28;20697;-67
2023/04/05 09:04:44;;;;;;;3.92;2.65;;;8.00;54.20;;;;;;5037254;28;20309;-66
2023/04/05 09:07:13;;;;;;;4.22;3.10;;;8.10;53.60;;;;;;5036444;28;20203;-67
2023/04/05 09:09:44;;;;;;;3.33;3.03;;;8.20;52.90;;;;;;5036226;28;20238;-66
2023/04/05 09:12:11;;;;;;;3.40;2.80;;;8.40;52.20;;;;;;5036851;28;20211;-66
2023/04/05 09:14:38;;;;;;;3.70;3.00;;;8.50;51.40;;;;;;5036505;28;20229;-66
2023/04/05 09:17:07;;;;;;;3.80;3.22;;;8.60;50.50;;;;;;5036803;28;20202;-66
2023/04/05 09:19:34;;;;;;;3.47;2.83;;;8.60;49.60;;;;;;5036552;28;20585;-66
2023/04/05 09:22:02;;;;;;;3.92;2.78;;;8.70;49.30;;;;;;5036727;28;20528;-66
2023/04/05 09:24:39;;;;;;;2.97;2.65;;;8.70;48.40;;;;;;5038122;28;20308;-68
2023/04/05 09:27:08;;;;;;;2.88;2.38;;;8.90;47.80;;;;;;5038304;28;20222;-67
2023/04/05 09:29:36;;;;;;;2.67;2.47;;;9.10;47.20;;;;;;5038741;28;20203;-67
2023/04/05 09:32:04;;;;;;;4.13;3.75;;;9.30;45.90;;;;;;5037403;28;20660;-66
2023/04/05 09:34:33;;;;;;;3.70;2.83;;;9.40;45.30;;;;;;5037201;28;20226;-67
2023/04/05 09:37:00;;;;;;;4.43;2.93;;;9.60;44.50;;;;;;5036373;28;20445;-67
2023/04/05 09:39:32;;;;;;;2.60;2.17;;;9.80;43.80;;;;;;5036442;28;20444;-66
2023/04/05 09:42:06;;;;;;;4.10;2.70;;;10.10;42.50;;;;;;5037147;28;20449;-67
2023/04/05 09:44:53;;;;;;;5.47;2.80;;;10.30;41.10;;;;;;5037000;28;20480;-66
2023/04/05 09:47:21;;;;;;;3.20;2.30;;;10.20;40.30;;;;;;5036443;28;20429;-67
2023/04/05 09:49:49;;;;;;;4.67;2.67;;;10.10;40.60;;;;;;5036050;28;20456;-67
2023/04/05 09:52:23;;;;;;;4.40;2.70;;;10.10;40.50;;;;;;5035409;28;20568;-68
2023/04/05 09:54:52;;;;;;;3.47;2.40;;;10.10;40.60;;;;;;5034931;28;20552;-67
2023/04/05 09:57:19;;;;;;;4.60;3.20;;;10.10;40.50;;;;;;5035442;28;20444;-66
2023/04/05 09:59:47;;;;;;;4.40;3.10;;;10.00;40.30;;;;;;5036210;28;20989;-67
2023/04/05 10:02:14;;;;;;;8.37;3.10;;;9.90;41.10;;;;;;5036792;28;20955;-66
2023/04/05 10:04:41;;;;;;;4.30;2.63;;;9.60;40.80;;;;;;5037103;28;20465;-67
2023/04/05 10:07:12;;;;;;;3.90;3.00;;;9.40;40.70;;;;;;5037717;28;20468;-68
2023/04/05 10:09:39;;;;;;;2.97;2.50;;;9.10;40.60;;;;;;5039195;28;20532;-67
2023/04/05 10:12:08;;;;;;;3.90;2.70;;;9.00;40.70;;;;;;5038592;28;20491;-67
2023/04/05 10:14:35;;;;;;;3.50;2.72;;;8.80;40.60;;;;;;5037752;28;20473;-68
2023/04/05 10:17:10;;;;;;;3.55;3.25;;;8.60;40.40;;;;;;5037737;28;20285;-68
2023/04/05 10:20:02;;;;;;;3.35;2.97;;;8.50;40.60;;;;;;5037771;28;20700;-66
2023/04/05 10:22:36;;;;;;;4.20;3.10;;;8.80;40.90;;;;;;5037473;28;20202;-67
2023/04/05 10:25:08;;;;;;;3.40;2.60;;;9.10;40.60;;;;;;5036533;28;20453;-66
2023/04/05 10:27:39;;;;;;;7.93;3.60;;;9.40;40.10;;;;;;5038523;28;20241;-67
2023/04/05 10:30:08;;;;;;;3.10;2.80;;;9.70;40.00;;;;;;5041445;28;20473;-68
2023/04/05 10:32:46;;;;;;;3.63;3.23;;;10.10;39.30;;;;;;5037989;28;20542;-69
2023/04/05 10:35:17;;;;;;;3.97;2.63;;;10.50;39.20;;;;;;5037551;28;20493;-67
2023/04/05 10:38:01;;;;;;;3.03;2.70;;;10.80;39.60;;;;;;5037220;28;20434;-67
2023/04/05 10:40:32;;;;;;;5.70;3.00;;;11.00;38.60;;;;;;5036711;28;20556;-68
2023/04/05 10:43:00;;;;;;;4.70;3.27;;;11.00;38.00;;;;;;5037352;28;20436;-68
2023/04/05 10:45:28;;;;;;;3.90;2.70;;;11.00;37.70;;;;;;5036700;28;20481;-68
2023/04/05 10:48:00;;;;;;;2.60;2.40;;;11.00;37.80;;;;;;5038088;28;20540;-68
2023/04/05 10:50:28;;;;;;;2.97;2.67;;;11.20;38.00;;;;;;5036082;28;20438;-68
2023/04/05 10:52:58;;;;;;;3.70;3.03;;;11.40;37.70;;;;;;5035650;28;20918;-68
2023/04/05 10:55:26;;;;;;;3.07;2.43;;;11.40;37.40;;;;;;5035346;28;20473;-67
2023/04/05 10:57:54;;;;;;;5.13;2.87;;;11.50;37.50;;;;;;5034702;28;20449;-67
2023/04/05 11:00:23;;;;;;;3.93;3.37;;;11.50;37.10;;;;;;5033993;28;20444;-67
2023/04/05 11:02:54;;;;;;;3.03;2.73;;;11.60;37.00;;;;;;5035623;28;20443;-68
2023/04/05 11:05:32;;;;;;;3.50;3.20;;;11.70;36.80;;;;;;5035947;28;20479;-67
2023/04/05 11:08:05;;;;;;;5.00;3.13;;;11.90;36.30;;;;;;5035826;28;20459;-68
2023/04/05 11:10:34;;;;;;;6.10;3.43;;;11.80;35.70;;;;;;5035105;28;20438;-67
2023/04/05 11:13:09;;;;;;;3.40;3.00;;;11.60;35.50;;;;;;5034851;28;20476;-69
2023/04/05 11:15:36;;;;;;;3.27;2.97;;;11.40;35.70;;;;;;5036713;28;20448;-67
2023/04/05 11:18:05;;;;;;;4.17;3.50;;;11.10;35.80;;;;;;5034588;28;20449;-67
2023/04/05 11:20:51;;;;;;;7.10;3.23;;;10.90;36.10;;;;;;5034266;28;20536;-68
2023/04/05 11:23:22;;;;;;;8.63;3.20;;;10.90;36.00;;;;;;5034941;28;20437;-67
2023/04/05 11:25:53;;;;;;;3.50;3.17;;;10.60;35.50;;;;;;5034616;28;20429;-68
2023/04/05 11:28:30;;;;;;;4.67;3.77;;;10.30;35.60;;;;;;5034580;28;20436;-67
2023/04/05 11:30:58;;;;;;;3.30;3.00;;;10.10;36.00;;;;;;5033798;28;21028;-65
2023/04/05 11:33:54;;;;;;;4.10;2.90;;;10.20;35.90;;;;;;5034120;28;20481;-68
2023/04/05 11:36:40;;;;;;;3.70;3.13;;;10.20;35.70;;;;;;5034718;28;20436;-68
2023/04/05 11:39:27;;;;;;;3.17;2.87;;;10.30;35.90;;;;;;5033972;28;20887;-67
2023/04/05 11:42:00;;;;;;;4.10;3.80;;;10.70;35.80;;;;;;5034118;28;20448;-67
2023/04/05 11:44:28;;;;;;;4.00;3.60;;;11.20;35.60;;;;;;5033299;28;20477;-67
2023/04/05 11:46:55;;;;;;;5.50;3.67;;;11.60;35.10;;;;;;5033984;28;20445;-67
2023/04/05 11:49:23;;;;;;;3.70;3.20;;;12.00;34.90;;;;;;5034038;28;20548;-65
2023/04/05 11:51:52;;;;;;;3.63;3.23;;;12.30;34.70;;;;;;5035337;28;21077;-67
2023/04/05 11:54:33;;;;;;;4.80;3.10;;;12.30;33.70;;;;;;5035078;28;20467;-69
2023/04/05 11:57:00;;;;;;;4.90;3.40;;;12.30;34.00;;;;;;5034345;28;20927;-68
2023/04/05 11:59:35;;;;;;;5.63;4.00;;;12.50;34.10;;;;;;5038825;28;20460;-68
2023/04/05 12:02:05;;;;;;;6.93;5.00;;;12.80;33.80;;;;;;5034069;28;20457;-68
2023/04/05 12:04:32;;;;;;;7.90;4.83;;;13.00;33.60;;;;;;5034213;28;20985;-68
2023/04/05 12:07:12;;;;;;;4.77;3.93;;;13.30;33.30;;;;;;5034102;28;20947;-68
2023/04/05 12:10:02;;;;;;;4.63;4.07;;;13.50;33.00;;;;;;5034827;28;20451;-69
2023/04/05 12:12:32;;;;;;;7.53;4.20;;;13.70;32.80;;;;;;5034883;28;20461;-68
2023/04/05 12:15:00;;;;;;;5.20;4.70;;;14.00;32.50;;;;;;5033987;28;20612;-68
2023/04/05 12:17:43;;;;;;;5.37;4.87;;;14.30;32.20;;;;;;5034342;28;20444;-68
2023/04/05 12:20:11;;;;;;;7.60;3.87;;;14.70;32.30;;;;;;5031409;28;20510;-67
2023/04/05 12:22:39;;;;;;;6.83;4.20;;;14.90;31.80;;;;;;5034738;28;20447;-67
2023/04/05 12:25:08;;;;;;;4.17;3.70;;;14.90;31.50;;;;;;5034336;28;20488;-66
2023/04/05 12:27:35;;;;;;;4.77;3.97;;;14.80;30.80;;;;;;5034595;28;20465;-69
2023/04/05 12:30:14;;;;;;;4.23;3.83;;;14.50;30.80;;;;;;5035103;28;20441;-68
2023/04/05 12:32:42;;;;;;;4.43;3.60;;;14.30;31.00;;;;;;5037561;28;20504;-67
2023/04/05 12:35:13;;;;;;;6.57;4.20;;;14.40;31.30;;;;;;5038956;28;20465;-67
2023/04/05 12:37:40;;;;;;;4.67;4.27;;;14.60;31.20;;;;;;5038521;28;20447;-68
2023/04/05 12:40:10;;;;;;;4.47;4.07;;;14.70;31.00;;;;;;5038668;28;20441;-68
2023/04/05 12:42:38;;;;;;;5.27;4.70;;;14.80;30.80;;;;;;5038195;28;20441;-67
2023/04/05 12:45:06;;;;;;;4.87;4.20;;;14.70;30.80;;;;;;5062823;22;20495;-64
2023/04/05 12:47:34;;;;;;;4.50;4.13;;;14.80;31.00;;;;;;5056954;28;20941;-62
2023/04/05 12:50:12;;;;;;;4.67;4.27;;;14.80;30.50;;;;;;5057495;28;20448;-64
2023/04/05 12:52:39;;;;;;;5.77;5.00;;;14.80;30.60;;;;;;5056825;28;20479;-63
2023/04/05 12:55:16;;;;;;;4.80;4.40;;;14.90;30.50;;;;;;5056170;28;20548;-64
2023/04/05 12:57:43;;;;;;;5.73;5.23;;;14.80;30.30;;;;;;5056462;28;20498;-63
2023/04/05 13:00:11;;;;;;;5.33;4.63;;;14.80;30.40;;;;;;5056746;28;20476;-64
2023/04/05 13:02:38;;;;;;;6.20;4.33;;;14.70;30.10;;;;;;5056536;28;20447;-62
2023/04/05 13:05:05;;;;;;;4.60;4.20;;;14.50;29.90;;;;;;5056658;28;20467;-63